KACP

Details ICAO KACP
Name ALLEN PARISH
Region United States
Timezone America/Chicago (UTC-6.0)
Plans Departing 3
Arriving 6
Stats Elevation 107 ft / 33 m (AMSL)
Location 30.750491° -92.686992°
Runways 1
Magnetic Variation 0.788° E
Sunrise 2017-12-17 13:03:35 UTC / 2017-12-17 07:03:35 Local
Sunset 2017-12-17 23:13:08 UTC / 2017-12-17 17:13:08 Local
Advertisement - Login to hide

Runways

ID Width Length Bearing (true) Bearing (mag) Surface Threshold Offset Overrun Length
18 75 ft / 23 m 5,099 ft / 1,554 m 169.82° 169.03° Asphalt 0 ft / 0 m 0 ft / 0 m
36 75 ft / 23 m 5,099 ft / 1,554 m 349.83° 349.04° Asphalt 0 ft / 0 m 0 ft / 0 m

Map

Weather


0- 5 10 15 20 25 30 35+ Temperature / ° C

Clouds and Precipitation
Forecast for 2017-12-18 00:00 UTC. Updated an hour ago

Ground ~20,000 ft ~40,000 ft Winds

METAR

KACP 172015Z AUTO 00000KT 10SM OVC006 16/14 A3007 RMK AO2 LTG DSNT SE T01550135

TAF

Not found

Frequencies

Recorded 118.27 MHz AWOS 3
Approach 123.70 MHz POLK APP/DEP
Unicom 122.80 MHz CTAF/UNICOM
Warning: Do not use this data for real-world aviation or navigation. No guarantee of current accuracy is given.